TimeCST,TemperatureF,Dew PointF,Humidity,Sea Level PressureIn,VisibilityMPH,Wind Direction,Wind SpeedMPH,Gust SpeedMPH,PrecipitationIn,Events,Conditions,WindDirDegrees,DateUTC
12:53 AM,70.0,63.0,78,30.03,10.0,East,3.5,-,N/A,,Scattered Clouds,100,2012-11-04 05:53:00
1:53 AM,69.1,62.1,78,30.02,10.0,ENE,3.5,-,N/A,,Scattered Clouds,60,2012-11-04 06:53:00
1:53 AM,68.0,62.1,81,30.02,10.0,Calm,Calm,-,N/A,,Clear,0,2012-11-04 07:53:00
2:53 AM,66.9,62.1,84,30.01,10.0,Calm,Calm,-,N/A,,Clear,0,2012-11-04 08:53:00
3:42 AM,68.0,62.6,83,30.03,10.0,Calm,Calm,-,N/A,,Mostly Cloudy,0,2012-11-04 09:42:00
3:53 AM,68.0,62.1,81,30.02,10.0,Calm,Calm,-,N/A,,Mostly Cloudy,0,2012-11-04 09:53:00
4:19 AM,66.2,62.6,88,30.02,10.0,Calm,Calm,-,N/A,,Scattered Clouds,0,2012-11-04 10:19:00
4:53 AM,66.9,62.1,84,30.02,10.0,Calm,Calm,-,N/A,,Clear,0,2012-11-04 10:53:00
5:53 AM,66.2,60.8,83,30.04,10.0,NE,3.5,-,N/A,,Clear,50,2012-11-04 11:53:00
6:40 AM,68.0,64.4,88,30.07,10.0,NNE,8.1,-,N/A,,Mostly Cloudy,30,2012-11-04 12:40:00
6:53 AM,69.1,63.0,81,30.06,10.0,NNE,8.1,-,N/A,,Overcast,30,2012-11-04 12:53:00
7:51 AM,69.8,62.6,78,30.08,10.0,ENE,4.6,-,N/A,,Scattered Clouds,70,2012-11-04 13:51:00
7:53 AM,70.0,62.1,76,30.07,10.0,ENE,4.6,-,N/A,,Scattered Clouds,70,2012-11-04 13:53:00
8:24 AM,73.4,60.8,65,30.09,10.0,NE,8.1,-,N/A,,Mostly Cloudy,50,2012-11-04 14:24:00
8:53 AM,73.9,62.1,66,30.09,10.0,NE,5.8,-,N/A,,Mostly Cloudy,40,2012-11-04 14:53:00
9:10 AM,75.2,62.6,65,30.09,10.0,NE,8.1,-,N/A,,Scattered Clouds,50,2012-11-04 15:10:00
9:25 AM,75.2,62.6,65,30.09,10.0,ENE,3.5,-,N/A,,Mostly Cloudy,60,2012-11-04 15:25:00
9:38 AM,77.0,60.8,57,30.09,10.0,ENE,3.5,-,N/A,,Scattered Clouds,60,2012-11-04 15:38:00
9:51 AM,78.8,60.8,54,30.09,10.0,NE,4.6,-,N/A,,Mostly Cloudy,40,2012-11-04 15:51:00
9:53 AM,80.1,62.1,54,30.09,10.0,NE,5.8,-,N/A,,Mostly Cloudy,50,2012-11-04 15:53:00
10:53 AM,82.9,66.9,58,30.08,10.0,South,3.5,-,N/A,,Scattered Clouds,180,2012-11-04 16:53:00
11:53 AM,82.9,66.9,58,30.05,10.0,Variable,3.5,-,N/A,,Overcast,0,2012-11-04 17:53:00
12:53 PM,84.0,66.9,56,30.02,10.0,Variable,3.5,-,N/A,,Partly Cloudy,0,2012-11-04 18:53:00
1:53 PM,86.0,64.0,48,29.99,10.0,Calm,Calm,-,N/A,,Mostly Cloudy,0,2012-11-04 19:53:00
2:53 PM,87.1,63.0,44,29.98,10.0,Calm,Calm,-,N/A,,Clear,0,2012-11-04 20:53:00
3:53 PM,77.0,61.0,58,30.00,10.0,ESE,15.0,-,N/A,,Mostly Cloudy,110,2012-11-04 21:53:00
4:53 PM,75.0,61.0,62,30.02,10.0,East,9.2,-,N/A,,Overcast,100,2012-11-04 22:53:00
5:53 PM,73.9,60.1,62,30.03,10.0,SE,5.8,-,0.00,,Clear,130,2012-11-04 23:53:00
6:53 PM,72.0,64.0,76,30.06,10.0,SSE,8.1,-,N/A,,Mostly Cloudy,150,2012-11-05 00:53:00
7:53 PM,70.0,66.0,87,30.06,10.0,SE,3.5,-,N/A,,Clear,130,2012-11-05 01:53:00
8:53 PM,70.0,66.9,90,30.07,10.0,SSW,3.5,-,N/A,,Clear,210,2012-11-05 02:53:00
9:53 PM,68.0,66.0,93,30.07,6.0,Calm,Calm,-,N/A,,Clear,0,2012-11-05 03:53:00
10:01 PM,68.0,66.2,94,30.08,1.8,Calm,Calm,-,N/A,,Clear,0,2012-11-05 04:01:00
10:30 PM,66.2,64.4,94,30.07,0.5,Calm,Calm,-,N/A,Fog,Fog,0,2012-11-05 04:30:00
10:50 PM,68.0,64.4,88,30.08,0.2,Calm,Calm,-,N/A,Fog,Fog,0,2012-11-05 04:50:00
10:53 PM,68.0,66.0,93,30.07,0.5,Calm,Calm,-,N/A,Fog,Fog,0,2012-11-05 04:53:00